createdAt,value
2022-09-12T00:01:20.249Z,9.90
2022-09-12T00:03:48.536Z,7.20
2022-09-12T00:06:32.121Z,10.52
2022-09-12T00:09:04.371Z,10.30
2022-09-12T00:11:32.233Z,8.00
2022-09-12T00:14:02.453Z,7.43
2022-09-12T00:16:33.252Z,8.00
2022-09-12T00:19:01.997Z,7.72
2022-09-12T00:21:29.392Z,9.70
2022-09-12T00:23:56.964Z,10.32
2022-09-12T00:26:24.219Z,9.93
2022-09-12T00:28:51.717Z,9.25
2022-09-12T00:31:24.833Z,8.88
2022-09-12T00:33:55.097Z,7.95
2022-09-12T00:36:25.588Z,8.90
2022-09-12T00:38:54.804Z,8.10
2022-09-12T00:41:42.126Z,9.02
2022-09-12T00:44:24.610Z,9.40
2022-09-12T00:46:58.329Z,9.52
2022-09-12T00:49:33.992Z,9.52
2022-09-12T00:52:13.799Z,11.85
2022-09-12T00:55:15.647Z,9.95
2022-09-12T00:58:14.632Z,8.60
2022-09-12T01:00:42.322Z,11.15
2022-09-12T01:03:17.413Z,7.95
2022-09-12T01:06:28.392Z,10.23
2022-09-12T01:08:57.744Z,8.02
2022-09-12T01:11:25.034Z,7.55
2022-09-12T01:13:52.325Z,8.35
2022-09-12T01:16:20.188Z,6.97
2022-09-12T01:19:28.325Z,8.30
2022-09-12T01:22:35.151Z,6.88
2022-09-12T01:25:31.784Z,8.68
2022-09-12T01:28:35.709Z,7.53
2022-09-12T01:31:17.445Z,8.60
2022-09-12T01:33:59.687Z,8.40
2022-09-12T01:36:38.656Z,9.80
2022-09-12T01:39:44.078Z,9.80
2022-09-12T01:42:59.009Z,8.82
2022-09-12T01:45:35.975Z,9.10
2022-09-12T01:48:32.441Z,9.45
2022-09-12T01:51:13.691Z,8.70
2022-09-12T01:53:47.070Z,7.53
2022-09-12T01:56:26.614Z,8.95
2022-09-12T01:59:17.012Z,10.73
2022-09-12T02:01:55.592Z,8.10
2022-09-12T02:04:33.952Z,9.93
2022-09-12T02:07:17.425Z,8.50
2022-09-12T02:10:12.544Z,8.65
2022-09-12T02:12:55.879Z,7.40
2022-09-12T02:15:35.174Z,8.70
2022-09-12T02:18:06.355Z,10.25
2022-09-12T02:20:48.981Z,9.85
2022-09-12T02:23:25.185Z,8.05
2022-09-12T02:26:00.399Z,10.80
2022-09-12T02:28:35.944Z,9.15
2022-09-12T02:31:33.827Z,10.07
2022-09-12T02:34:28.906Z,9.10
2022-09-12T02:37:13.302Z,11.85
2022-09-12T02:39:45.030Z,15.35
2022-09-12T02:42:13.133Z,18.02
2022-09-12T02:44:40.528Z,20.65
2022-09-12T02:47:20.662Z,22.83
2022-09-12T02:49:48.332Z,23.25
2022-09-12T02:52:16.263Z,17.52
2022-09-12T02:54:44.978Z,12.43
2022-09-12T02:57:21.884Z,10.68
2022-09-12T02:59:53.554Z,9.10
2022-09-12T03:02:41.597Z,7.47
2022-09-12T03:05:33.306Z,9.23
2022-09-12T03:08:29.056Z,10.50
2022-09-12T03:11:36.697Z,7.55
2022-09-12T03:14:36.050Z,7.28
2022-09-12T03:17:38.842Z,9.50
2022-09-12T03:20:24.940Z,13.07
2022-09-12T03:22:57.662Z,14.35
2022-09-12T03:25:42.113Z,12.23
2022-09-12T03:33:21.096Z,12.70
2022-09-12T03:35:49.270Z,12.15
2022-09-12T03:38:17.028Z,9.73
2022-09-12T03:40:44.939Z,9.50
2022-09-12T03:43:12.371Z,9.52
2022-09-12T03:45:39.681Z,8.35
2022-09-12T03:48:07.316Z,10.30
2022-09-12T03:50:34.970Z,10.27
2022-09-12T03:53:03.722Z,10.20
2022-09-12T03:55:31.209Z,9.68
2022-09-12T03:57:58.425Z,10.35
2022-09-12T04:00:26.175Z,9.77
2022-09-12T04:02:57.714Z,12.43
2022-09-12T04:05:26.233Z,11.25
2022-09-12T04:07:53.506Z,11.63
2022-09-12T04:10:20.883Z,12.35
2022-09-12T04:12:48.138Z,11.48
2022-09-12T04:15:15.571Z,9.85
2022-09-12T04:17:42.804Z,11.10
2022-09-12T04:20:10.325Z,10.13
2022-09-12T04:22:37.608Z,9.15
2022-09-12T04:25:05.508Z,7.78
2022-09-12T04:27:32.863Z,9.30
2022-09-12T04:30:02.288Z,11.95
2022-09-12T04:32:31.465Z,8.02
2022-09-12T04:34:58.941Z,8.10
2022-09-12T04:37:26.239Z,8.85
2022-09-12T04:39:57.897Z,7.13
2022-09-12T04:42:25.386Z,7.43
2022-09-12T04:44:52.622Z,10.27
2022-09-12T04:47:19.934Z,7.45
2022-09-12T04:49:48.595Z,6.60
2022-09-12T04:52:15.800Z,8.35
2022-09-12T04:54:43.001Z,8.77
2022-09-12T04:57:11.137Z,8.80
2022-09-12T04:59:39.597Z,7.70
2022-09-12T05:02:06.896Z,8.23
2022-09-12T05:04:34.934Z,7.00
2022-09-12T05:07:02.934Z,9.60
2022-09-12T05:09:30.317Z,6.70
2022-09-12T05:12:05.636Z,6.60
2022-09-12T05:14:34.230Z,7.50
2022-09-12T05:17:02.338Z,7.65
2022-09-12T05:19:31.418Z,9.45
2022-09-12T05:21:59.570Z,8.45
2022-09-12T05:24:27.395Z,8.07
2022-09-12T05:26:54.819Z,6.45
2022-09-12T05:29:22.074Z,9.93
2022-09-12T05:31:52.326Z,8.35
2022-09-12T05:34:21.009Z,6.72
2022-09-12T05:36:49.156Z,9.20
2022-09-12T05:39:16.594Z,10.68
2022-09-12T05:41:43.817Z,9.75
2022-09-12T05:44:15.251Z,9.35
2022-09-12T05:46:48.653Z,12.18
2022-09-12T05:49:15.921Z,13.60
2022-09-12T05:51:46.003Z,16.52
2022-09-12T05:54:17.860Z,11.43
2022-09-12T05:56:46.388Z,10.77
2022-09-12T05:59:19.856Z,13.85
2022-09-12T06:01:48.655Z,11.23
2022-09-12T06:04:17.236Z,13.38
2022-09-12T06:06:46.256Z,15.50
2022-09-12T06:09:16.685Z,16.17
2022-09-12T06:11:45.770Z,13.02
2022-09-12T06:14:16.312Z,13.75
2022-09-12T06:16:43.878Z,14.35
2022-09-12T06:19:20.601Z,13.45
2022-09-12T06:21:51.682Z,11.50
2022-09-12T06:24:20.249Z,12.68
2022-09-12T06:26:49.231Z,12.32
2022-09-12T06:29:17.313Z,14.40
2022-09-12T06:31:45.882Z,16.48
2022-09-12T06:34:15.629Z,13.88
2022-09-12T06:36:46.630Z,14.68
2022-09-12T06:39:22.832Z,14.45
2022-09-12T06:41:52.195Z,12.02
2022-09-12T06:44:23.037Z,10.57
2022-09-12T06:46:50.811Z,9.07
2022-09-12T06:49:18.323Z,11.63
2022-09-12T06:51:45.539Z,8.02
2022-09-12T06:54:15.664Z,7.50
2022-09-12T06:56:43.834Z,7.18
2022-09-12T06:59:11.100Z,8.05
2022-09-12T07:01:38.637Z,9.80
2022-09-12T07:04:06.146Z,7.20
2022-09-12T07:06:41.873Z,7.03
2022-09-12T07:09:13.947Z,10.95
2022-09-12T07:11:43.057Z,7.35
2022-09-12T07:14:14.094Z,6.95
2022-09-12T07:16:42.068Z,6.13
2022-09-12T07:19:11.011Z,6.47
2022-09-12T07:21:40.445Z,9.35
2022-09-12T07:24:10.178Z,10.27
2022-09-12T07:26:38.877Z,8.20
2022-09-12T07:29:34.737Z,5.05
2022-09-12T07:31:53.706Z,7.30
2022-09-12T07:34:20.957Z,9.77
2022-09-12T07:36:48.184Z,8.30
2022-09-12T07:39:15.479Z,6.78
2022-09-12T07:41:42.626Z,6.30
2022-09-12T07:44:09.998Z,6.88
2022-09-12T07:46:37.327Z,7.60
2022-09-12T07:49:04.631Z,7.00
2022-09-12T07:51:32.443Z,7.55
2022-09-12T07:54:00.160Z,8.27
2022-09-12T07:56:31.192Z,6.70
2022-09-12T07:59:00.073Z,5.80
2022-09-12T08:01:28.156Z,6.75
2022-09-12T08:03:59.153Z,8.65
2022-09-12T08:06:28.580Z,6.40
2022-09-12T08:08:58.272Z,9.93
2022-09-12T08:11:28.476Z,8.27
2022-09-12T08:13:57.784Z,9.93
2022-09-12T08:16:35.534Z,8.05
2022-09-12T08:19:04.024Z,6.15
2022-09-12T08:21:33.535Z,8.15
2022-09-12T08:24:06.302Z,8.43
2022-09-12T08:26:35.314Z,7.88
2022-09-12T08:29:02.661Z,9.75
2022-09-12T08:31:36.525Z,7.03
2022-09-12T08:34:07.945Z,8.75
2022-09-12T08:36:36.040Z,8.43
2022-09-12T08:39:08.036Z,7.05
2022-09-12T08:41:47.140Z,6.82
2022-09-12T08:44:35.571Z,6.63
2022-09-12T08:47:37.089Z,6.25
2022-09-12T08:50:12.872Z,6.28
2022-09-12T08:52:52.049Z,4.03
2022-09-12T08:55:28.443Z,3.92
2022-09-12T08:57:55.693Z,4.50
2022-09-12T09:00:23.282Z,8.77
2022-09-12T09:03:02.783Z,4.65
2022-09-12T09:05:51.454Z,5.13
2022-09-12T09:08:45.359Z,4.90
2022-09-12T09:11:42.932Z,8.93
2022-09-12T09:14:56.545Z,7.55
2022-09-12T09:17:33.082Z,5.30
2022-09-12T09:20:15.318Z,4.72
2022-09-12T09:23:22.133Z,8.23
2022-09-12T09:26:01.862Z,5.55
2022-09-12T09:28:42.679Z,6.03
2022-09-12T09:31:22.012Z,4.75
2022-09-12T09:33:55.246Z,5.40
2022-09-12T09:36:41.324Z,6.67
2022-09-12T09:39:35.251Z,5.30
2022-09-12T09:42:12.753Z,4.47
2022-09-12T09:44:40.367Z,3.10
2022-09-12T09:47:12.853Z,4.55
2022-09-12T09:49:40.532Z,4.85
2022-09-12T09:52:09.141Z,3.35
2022-09-12T09:54:57.449Z,5.63
2022-09-12T09:57:37.171Z,5.40
2022-09-12T10:00:31.707Z,4.13
2022-09-12T10:03:13.924Z,5.40
2022-09-12T10:06:01.244Z,3.45
2022-09-12T10:08:32.657Z,2.70
2022-09-12T10:11:19.405Z,3.10
2022-09-12T10:13:58.159Z,4.70
2022-09-12T10:16:30.314Z,3.78
2022-09-12T10:19:00.698Z,4.03
2022-09-12T10:22:01.093Z,4.60
2022-09-12T10:24:35.506Z,5.18
2022-09-12T10:27:41.342Z,3.17
2022-09-12T10:30:19.821Z,4.88
2022-09-12T10:32:54.212Z,3.80
2022-09-12T10:35:48.213Z,2.58
2022-09-12T10:38:33.571Z,6.47
2022-09-12T10:41:10.398Z,3.03
2022-09-12T10:43:41.506Z,3.20
2022-09-12T10:46:29.436Z,3.47
2022-09-12T10:49:31.551Z,3.33
2022-09-12T10:52:24.021Z,4.38
2022-09-12T10:54:52.449Z,5.80
2022-09-12T10:57:47.691Z,4.10
2022-09-12T11:00:27.550Z,4.65
2022-09-12T11:03:17.050Z,9.00
2022-09-12T11:06:01.866Z,3.42
2022-09-12T11:08:34.672Z,3.38
2022-09-12T11:11:29.633Z,4.35
2022-09-12T11:14:46.385Z,4.50
2022-09-12T11:17:47.384Z,4.03
2022-09-12T11:20:44.726Z,5.20
2022-09-12T11:23:14.737Z,4.15
2022-09-12T11:25:55.669Z,2.95
2022-09-12T11:28:50.731Z,3.72
2022-09-12T11:31:35.785Z,3.42
2022-09-12T11:34:09.711Z,5.57
2022-09-12T11:37:07.440Z,6.03
2022-09-12T11:39:41.514Z,4.35
2022-09-12T11:42:26.260Z,4.50
2022-09-12T11:45:17.875Z,3.53
2022-09-12T11:47:55.859Z,2.40
2022-09-12T11:50:32.206Z,3.75
2022-09-12T11:53:23.622Z,4.90
2022-09-12T11:56:17.271Z,2.85
2022-09-12T11:58:53.353Z,5.20
2022-09-12T12:01:48.695Z,4.75
2022-09-12T12:04:22.342Z,3.58
2022-09-12T12:07:11.314Z,3.67
2022-09-12T12:09:53.223Z,4.93
2022-09-12T12:12:25.621Z,6.13
2022-09-12T12:14:55.686Z,3.05
2022-09-12T12:17:25.689Z,5.70
2022-09-12T12:20:07.428Z,4.95
2022-09-12T12:22:36.153Z,5.05
2022-09-12T12:25:17.248Z,4.53
2022-09-12T12:27:59.199Z,5.43
2022-09-12T12:30:33.582Z,7.15
2022-09-12T12:33:02.106Z,3.72
2022-09-12T12:36:04.705Z,3.10
2022-09-12T12:38:44.494Z,4.72
2022-09-12T12:41:17.710Z,4.05
2022-09-12T12:43:48.583Z,3.57
2022-09-12T12:46:18.055Z,3.63
2022-09-12T12:49:27.612Z,4.10
2022-09-12T12:51:55.996Z,4.43
2022-09-12T12:54:41.459Z,4.95
2022-09-12T12:57:26.747Z,2.30
2022-09-12T12:59:55.833Z,3.35
2022-09-12T13:02:36.228Z,3.67
2022-09-12T13:05:16.249Z,2.42
2022-09-12T13:07:44.680Z,3.42
2022-09-12T13:10:29.361Z,5.15
2022-09-12T13:13:01.537Z,3.38
2022-09-12T13:15:37.949Z,4.05
2022-09-12T13:18:22.225Z,3.15
2022-09-12T13:21:16.019Z,2.83
2022-09-12T13:23:44.491Z,3.93
2022-09-12T13:26:28.221Z,3.92
2022-09-12T13:29:21.988Z,4.43
2022-09-12T13:31:56.441Z,2.93
2022-09-12T13:34:31.825Z,3.70
2022-09-12T13:37:49.708Z,6.25
2022-09-12T13:40:38.479Z,3.78
2022-09-12T13:43:17.817Z,3.85
2022-09-12T13:45:47.629Z,3.05
2022-09-12T13:48:23.612Z,5.20
2022-09-12T13:51:00.896Z,4.65
2022-09-12T13:53:38.211Z,5.00
2022-09-12T13:56:05.503Z,5.20
2022-09-12T13:58:35.237Z,4.70
2022-09-12T14:01:13.677Z,3.25
2022-09-12T14:04:14.059Z,5.63
2022-09-12T14:06:51.186Z,4.20
2022-09-12T14:09:32.703Z,4.57
2022-09-12T14:12:00.283Z,4.13
2022-09-12T14:14:43.984Z,3.47
2022-09-12T14:17:29.872Z,3.70
2022-09-12T14:19:59.460Z,3.55
2022-09-12T14:22:29.912Z,3.25
2022-09-12T14:24:59.662Z,3.38
2022-09-12T14:27:44.377Z,3.97
2022-09-12T14:30:36.547Z,3.45
2022-09-12T14:33:09.756Z,3.50
2022-09-12T14:35:43.296Z,3.07
2022-09-12T14:41:01.847Z,2.88
2022-09-12T14:43:36.238Z,3.22
2022-09-12T14:46:18.213Z,2.40
2022-09-12T14:48:54.789Z,3.03
2022-09-12T14:51:34.794Z,3.45
2022-09-12T14:54:02.803Z,3.25
2022-09-12T14:56:45.344Z,2.90
2022-09-12T14:59:41.980Z,2.95
2022-09-12T15:02:20.779Z,4.13
2022-09-12T15:05:04.297Z,2.47
2022-09-12T15:08:03.818Z,2.33
2022-09-12T15:10:34.778Z,3.80
2022-09-12T15:13:11.101Z,3.47
2022-09-12T15:15:41.500Z,2.80
2022-09-12T15:18:09.769Z,5.13
2022-09-12T15:20:40.278Z,3.40
2022-09-12T15:23:17.446Z,4.93
2022-09-12T15:25:44.753Z,2.17
2022-09-12T15:28:21.189Z,2.78
2022-09-12T15:30:51.598Z,2.08
2022-09-12T15:33:21.104Z,7.90
2022-09-12T15:35:48.591Z,4.22
2022-09-12T15:38:15.880Z,3.75
2022-09-12T15:40:43.146Z,2.88
2022-09-12T15:43:14.150Z,4.10
2022-09-12T15:45:44.305Z,3.75
2022-09-12T15:48:11.898Z,3.95
2022-09-12T15:50:39.181Z,3.42
2022-09-12T15:53:06.421Z,3.72
2022-09-12T15:55:33.918Z,3.03
2022-09-12T15:58:06.265Z,3.08
2022-09-12T16:00:34.420Z,2.90
2022-09-12T16:03:01.842Z,3.33
2022-09-12T16:05:29.693Z,5.20
2022-09-12T16:07:56.948Z,5.25
2022-09-12T16:10:30.598Z,3.95
2022-09-12T16:12:58.398Z,2.38
2022-09-12T16:15:26.428Z,3.10
2022-09-12T16:17:54.149Z,3.83
2022-09-12T16:20:22.829Z,2.97
2022-09-12T16:22:50.149Z,4.68
2022-09-12T16:25:17.759Z,3.17
2022-09-12T16:27:45.848Z,2.58
2022-09-12T16:30:13.880Z,4.78
2022-09-12T16:32:41.504Z,4.97
2022-09-12T16:35:09.757Z,3.53
2022-09-12T16:37:36.998Z,3.22
2022-09-12T16:40:06.388Z,2.95
2022-09-12T16:42:33.682Z,5.72
2022-09-12T16:45:00.901Z,4.15
2022-09-12T16:47:32.208Z,6.47
2022-09-12T16:49:59.719Z,7.95
2022-09-12T16:52:27.259Z,6.05
2022-09-12T16:54:54.519Z,3.55
2022-09-12T16:57:22.562Z,3.10
2022-09-12T16:59:49.995Z,3.83
2022-09-12T17:02:17.297Z,2.80
2022-09-12T17:04:44.673Z,3.00
2022-09-12T17:07:11.901Z,2.75
2022-09-12T17:09:39.159Z,6.82
2022-09-12T17:12:06.650Z,4.25
2022-09-12T17:14:33.928Z,4.32
2022-09-12T17:17:01.222Z,6.00
2022-09-12T17:19:30.025Z,5.55
2022-09-12T17:21:58.416Z,7.53
2022-09-12T17:24:26.832Z,4.65
2022-09-12T17:26:54.882Z,4.28
2022-09-12T17:29:22.154Z,3.53
2022-09-12T17:31:49.452Z,6.78
2022-09-12T17:34:17.808Z,5.07
2022-09-12T17:36:48.478Z,5.00
2022-09-12T17:39:16.111Z,5.80
2022-09-12T17:41:45.781Z,8.32
2022-09-12T17:44:15.193Z,7.28
2022-09-12T17:46:43.426Z,9.98
2022-09-12T17:49:22.149Z,7.22
2022-09-12T17:51:49.485Z,9.88
2022-09-12T17:54:20.848Z,8.55
2022-09-12T17:56:49.900Z,10.35
2022-09-12T17:59:21.489Z,9.35
2022-09-12T18:02:07.523Z,6.90
2022-09-12T18:04:35.083Z,7.95
2022-09-12T18:07:02.457Z,7.70
2022-09-12T18:09:30.775Z,6.80
2022-09-12T18:11:58.675Z,8.02
2022-09-12T18:14:27.777Z,7.53
2022-09-12T18:16:57.229Z,6.25
2022-09-12T18:19:25.277Z,7.57
2022-09-12T18:21:52.739Z,8.70
2022-09-12T18:24:20.021Z,8.77
2022-09-12T18:26:47.380Z,7.07
2022-09-12T18:29:20.164Z,8.77
2022-09-12T18:31:48.093Z,5.82
2022-09-12T18:34:17.714Z,7.20
2022-09-12T18:36:48.897Z,6.78
2022-09-12T18:39:18.009Z,10.15
2022-09-12T18:41:45.385Z,6.28
2022-09-12T18:44:12.904Z,8.88
2022-09-12T18:46:40.293Z,8.73
2022-09-12T18:49:09.334Z,7.03
2022-09-12T18:51:40.139Z,7.55
2022-09-12T18:54:12.844Z,9.25
2022-09-12T18:56:43.527Z,6.22
2022-09-12T18:59:12.962Z,8.20
2022-09-12T19:01:40.646Z,7.57
2022-09-12T19:04:10.218Z,5.55
2022-09-12T19:06:44.713Z,9.13
2022-09-12T19:09:15.125Z,5.50
2022-09-12T19:11:48.973Z,5.90
2022-09-12T19:14:18.869Z,6.10
2022-09-12T19:16:46.337Z,6.45
2022-09-12T19:19:13.559Z,6.05
2022-09-12T19:21:42.135Z,6.15
2022-09-12T19:24:10.671Z,5.97
2022-09-12T19:26:39.627Z,5.25
2022-09-12T19:29:09.149Z,10.05
2022-09-12T19:31:36.391Z,6.10
2022-09-12T19:34:06.463Z,6.82
2022-09-12T19:36:44.785Z,6.35
2022-09-12T19:39:12.926Z,7.10
2022-09-12T19:41:40.083Z,6.28
2022-09-12T19:44:07.429Z,5.65
2022-09-12T19:46:34.995Z,7.22
2022-09-12T19:49:02.287Z,4.93
2022-09-12T19:51:29.599Z,7.68
2022-09-12T19:53:56.988Z,6.68
2022-09-12T19:56:24.180Z,6.28
2022-09-12T19:58:56.095Z,7.60
2022-09-12T20:01:29.988Z,8.02
2022-09-12T20:03:58.102Z,9.63
2022-09-12T20:06:26.912Z,7.00
2022-09-12T20:08:55.062Z,11.38
2022-09-12T20:11:24.462Z,7.50
2022-09-12T20:13:52.435Z,7.80
2022-09-12T20:16:29.194Z,7.35
2022-09-12T20:19:03.699Z,7.53
2022-09-12T20:24:04.617Z,6.03
2022-09-12T20:26:32.180Z,5.50
2022-09-12T20:29:00.143Z,5.60
2022-09-12T20:31:27.693Z,6.18
2022-09-12T20:33:55.428Z,5.70
2022-09-12T20:36:23.886Z,11.65
2022-09-12T20:39:02.591Z,7.22
2022-09-12T20:41:33.800Z,7.28
2022-09-12T20:44:01.004Z,8.70
2022-09-12T20:46:29.139Z,6.20
2022-09-12T20:48:57.038Z,7.43
2022-09-12T20:51:26.675Z,8.32
2022-09-12T20:54:00.187Z,8.57
2022-09-12T20:56:29.054Z,8.38
2022-09-12T20:58:57.594Z,11.18
2022-09-12T21:01:26.912Z,5.90
2022-09-12T21:03:55.227Z,6.70
2022-09-12T21:06:22.596Z,7.38
2022-09-12T21:08:51.022Z,6.10
2022-09-12T21:11:20.268Z,6.55
2022-09-12T21:13:47.892Z,5.68
2022-09-12T21:16:19.060Z,7.63
2022-09-12T21:18:46.821Z,5.45
2022-09-12T21:21:16.392Z,6.28
2022-09-12T21:23:43.687Z,6.45
2022-09-12T21:26:11.257Z,6.20
2022-09-12T21:28:38.600Z,6.45
2022-09-12T21:31:06.197Z,9.20
2022-09-12T21:33:33.555Z,11.88
2022-09-12T21:36:06.540Z,12.15
2022-09-12T21:38:34.757Z,7.43
2022-09-12T21:41:11.801Z,7.05
2022-09-12T21:43:39.714Z,9.85
2022-09-12T21:46:08.456Z,10.35
2022-09-12T21:48:36.678Z,8.85
2022-09-12T21:51:04.508Z,9.85
2022-09-12T21:53:32.224Z,11.07
2022-09-12T21:56:07.072Z,19.95
2022-09-12T21:58:34.906Z,18.08
2022-09-12T22:01:02.687Z,11.15
2022-09-12T22:03:30.841Z,10.15
2022-09-12T22:06:03.853Z,11.32
2022-09-12T22:08:33.366Z,9.55
2022-09-12T22:11:04.682Z,11.27
2022-09-12T22:13:32.521Z,8.98
2022-09-12T22:16:03.484Z,10.93
2022-09-12T22:18:36.928Z,8.93
2022-09-12T22:21:19.424Z,9.38
2022-09-12T22:24:05.149Z,6.70
2022-09-12T22:26:42.015Z,5.80
2022-09-12T22:29:10.432Z,6.97
2022-09-12T22:31:38.642Z,8.10
2022-09-12T22:34:06.642Z,5.90
2022-09-12T22:36:37.042Z,8.23
2022-09-12T22:39:06.496Z,7.47
2022-09-12T22:41:33.883Z,7.75
2022-09-12T22:44:01.207Z,7.18
2022-09-12T22:46:30.090Z,7.88
2022-09-12T22:48:57.430Z,5.90
2022-09-12T22:51:24.741Z,7.60
2022-09-12T22:53:52.470Z,6.38
2022-09-12T22:56:19.852Z,6.10
2022-09-12T22:58:47.113Z,7.60
2022-09-12T23:01:14.683Z,9.48
2022-09-12T23:03:42.313Z,8.35
2022-09-12T23:06:11.306Z,7.70
2022-09-12T23:08:39.927Z,7.78
2022-09-12T23:11:13.874Z,7.18
2022-09-12T23:13:45.464Z,9.27
2022-09-12T23:16:21.777Z,11.20
2022-09-12T23:18:49.491Z,7.50
2022-09-12T23:21:20.275Z,6.47
2022-09-12T23:23:47.645Z,6.22
2022-09-12T23:26:18.296Z,6.05
2022-09-12T23:29:05.823Z,7.95
2022-09-12T23:31:34.797Z,7.60
2022-09-12T23:34:06.123Z,6.25
2022-09-12T23:36:34.597Z,5.47
2022-09-12T23:39:02.349Z,6.93
2022-09-12T23:41:29.794Z,5.45
2022-09-12T23:43:57.317Z,8.63
2022-09-12T23:46:24.832Z,8.95
2022-09-12T23:48:53.496Z,6.57
2022-09-12T23:51:22.117Z,7.95
2022-09-12T23:53:50.201Z,8.20
2022-09-12T23:56:17.443Z,7.80
2022-09-12T23:58:44.798Z,6.30
